Time;durP1;ratioP1;P1;durP2;ratioP2;P2;SDS_P1;SDS_P2;PMS_P1;PMS_P2;Temp;Humidity;BMP_temperature;BMP_pressure;BME280_temperature;BME280_humidity;BME280_pressure;Samples;Min_cycle;Max_cycle;Signal;HPM_P1;HPM_P2
2022/09/08 00:01:49;;;;;;;;;;;22.90;82.90;;;;;;5093822;28;20347;-57
2022/09/08 00:04:15;;;;;;;;;;;22.90;82.90;;;;;;5092600;28;19927;-56
2022/09/08 00:06:41;;;;;;;;;;;22.90;82.90;;;;;;5093813;28;19953;-57
2022/09/08 00:09:06;;;;;;;;;;;22.90;83.00;;;;;;5094125;28;20256;-57
2022/09/08 00:11:33;;;;;;;;;;;22.90;82.90;;;;;;5093737;28;20019;-57
2022/09/08 00:13:59;;;;;;;;;;;22.90;83.00;;;;;;5094067;28;19980;-56
2022/09/08 00:16:24;;;;;;;;;;;22.90;83.00;;;;;;5093704;28;19998;-56
2022/09/08 00:18:51;;;;;;;;;;;22.90;82.90;;;;;;5092615;28;19951;-56
2022/09/08 00:21:17;;;;;;;;;;;22.90;82.90;;;;;;5093926;28;19908;-55
2022/09/08 00:23:42;;;;;;;;;;;22.90;82.90;;;;;;5094236;28;20309;-56
2022/09/08 00:26:08;;;;;;;;;;;22.90;83.00;;;;;;5093925;28;19908;-54
2022/09/08 00:28:33;;;;;;;;;;;22.90;83.00;;;;;;5092524;28;19915;-55
2022/09/08 00:30:59;;;;;;;;;;;22.90;83.00;;;;;;5093812;28;19908;-57
2022/09/08 00:33:25;;;;;;;;;;;22.90;83.00;;;;;;5093537;28;19912;-57
2022/09/08 00:35:51;;;;;;;;;;;22.90;83.00;;;;;;5093733;28;19912;-55
2022/09/08 00:38:17;;;;;;;;;;;22.90;83.00;;;;;;5093721;28;19908;-57
2022/09/08 00:40:47;;;;;;;;;;;22.90;83.00;;;;;;5092444;28;19920;-55
2022/09/08 00:43:30;;;;;;;;;;;22.90;83.00;;;;;;5093457;28;19912;-57
2022/09/08 00:45:58;;;;;;;;;;;22.90;83.00;;;;;;5093778;28;19908;-56
2022/09/08 00:48:24;;;;;;;;;;;22.90;83.10;;;;;;5092316;28;19946;-55
2022/09/08 00:50:49;;;;;;;;;;;22.90;83.00;;;;;;5093914;28;19908;-57
2022/09/08 00:53:16;;;;;;;;;;;22.90;83.00;;;;;;5093358;28;19912;-57
2022/09/08 00:55:42;;;;;;;;;;;22.90;83.10;;;;;;5093656;28;19909;-54
2022/09/08 00:58:07;;;;;;;;;;;22.90;83.00;;;;;;5093562;28;20365;-56
2022/09/08 01:00:38;;;;;;;;;;;22.90;83.10;;;;;;5095424;28;20405;-55
2022/09/08 01:03:06;;;;;;;;;;;22.90;83.10;;;;;;5096709;28;19920;-55
2022/09/08 01:05:35;;;;;;;;;;;22.90;83.00;;;;;;5096864;28;19908;-55
2022/09/08 01:14:04;;;;;;;;;;;22.90;83.00;;;;;;5096307;28;19976;-53
2022/09/08 01:16:41;;;;;;;;;;;22.90;83.10;;;;;;5096742;28;20351;-55
2022/09/08 01:19:11;;;;;;;;;;;22.90;83.10;;;;;;5096903;28;19915;-52
2022/09/08 01:21:43;;;;;;;;;;;22.90;83.20;;;;;;5096932;28;19951;-57
2022/09/08 01:24:08;;;;;;;;;;;22.90;83.10;;;;;;5096890;28;19977;-56
2022/09/08 01:26:38;;;;;;;;;;;22.90;83.10;;;;;;5096787;28;19994;-57
2022/09/08 01:29:05;;;;;;;;;;;22.90;83.20;;;;;;5096442;28;19908;-52
2022/09/08 01:31:33;;;;;;;;;;;22.90;83.20;;;;;;5095350;28;19912;-56
2022/09/08 01:34:00;;;;;;;;;;;22.90;83.10;;;;;;5096623;28;20025;-57
2022/09/08 01:36:25;;;;;;;;;;;22.90;83.20;;;;;;5096278;28;20351;-56
2022/09/08 01:38:51;;;;;;;;;;;22.90;83.20;;;;;;5096529;28;19908;-55
2022/09/08 01:41:16;;;;;;;;;;;22.90;83.20;;;;;;5096809;28;19908;-57
2022/09/08 01:43:42;;;;;;;;;;;22.90;83.20;;;;;;5096205;28;20045;-55
2022/09/08 01:46:07;;;;;;;;;;;22.90;83.20;;;;;;5096608;28;20248;-57
2022/09/08 01:48:33;;;;;;;;;;;22.90;83.20;;;;;;5096166;28;19909;-57
2022/09/08 01:50:59;;;;;;;;;;;22.90;83.80;;;;;;5096267;28;20326;-56
2022/09/08 01:53:25;;;;;;;;;;;22.90;83.20;;;;;;5095994;28;19939;-54
2022/09/08 01:55:50;;;;;;;;;;;22.90;83.20;;;;;;5096252;28;19955;-54
2022/09/08 01:58:16;;;;;;;;;;;22.90;83.20;;;;;;5096181;28;19915;-55
2022/09/08 02:00:41;;;;;;;;;;;22.90;83.30;;;;;;5096522;28;20436;-56
2022/09/08 02:03:08;;;;;;;;;;;22.90;83.20;;;;;;5096035;28;19927;-56
2022/09/08 02:05:36;;;;;;;;;;;22.90;83.20;;;;;;5095768;28;19916;-56
2022/09/08 02:08:02;;;;;;;;;;;22.90;83.30;;;;;;5095686;28;20014;-56
2022/09/08 02:10:28;;;;;;;;;;;22.90;83.30;;;;;;5095517;28;19952;-53
2022/09/08 02:12:53;;;;;;;;;;;22.90;83.30;;;;;;5093718;28;19913;-55
2022/09/08 02:15:19;;;;;;;;;;;22.90;83.30;;;;;;5095753;28;19920;-58
2022/09/08 02:17:44;;;;;;;;;;;22.90;83.30;;;;;;5095799;28;19908;-55
2022/09/08 02:20:10;;;;;;;;;;;22.90;83.30;;;;;;5095705;28;19908;-54
2022/09/08 02:22:35;;;;;;;;;;;22.90;83.40;;;;;;5095730;28;19931;-52
2022/09/08 02:25:01;;;;;;;;;;;22.90;83.40;;;;;;5094249;28;19908;-53
2022/09/08 02:27:26;;;;;;;;;;;22.90;83.30;;;;;;5095304;28;19915;-57
2022/09/08 02:29:52;;;;;;;;;;;22.90;83.40;;;;;;5094274;28;19912;-57
2022/09/08 02:32:17;;;;;;;;;;;22.90;83.40;;;;;;5094172;28;19912;-55
2022/09/08 02:34:43;;;;;;;;;;;22.90;83.40;;;;;;5095127;28;19912;-53
2022/09/08 02:37:08;;;;;;;;;;;22.90;83.40;;;;;;5095146;28;19908;-55
2022/09/08 02:39:33;;;;;;;;;;;22.90;83.40;;;;;;5095691;28;20400;-56
2022/09/08 02:41:59;;;;;;;;;;;22.90;83.40;;;;;;5095304;28;19999;-53
2022/09/08 02:44:24;;;;;;;;;;;22.90;83.50;;;;;;5095023;28;19908;-56
2022/09/08 02:46:50;;;;;;;;;;;22.90;83.40;;;;;;5094864;28;20002;-53
2022/09/08 02:49:15;;;;;;;;;;;22.90;83.40;;;;;;5093876;28;19977;-56
2022/09/08 02:51:41;;;;;;;;;;;22.90;83.50;;;;;;5094783;28;19955;-57
2022/09/08 02:54:06;;;;;;;;;;;22.90;83.50;;;;;;5093473;28;19978;-57
2022/09/08 02:56:32;;;;;;;;;;;22.90;83.50;;;;;;5094836;28;19927;-53
2022/09/08 02:58:57;;;;;;;;;;;22.90;83.50;;;;;;5094692;28;20338;-56
2022/09/08 03:01:23;;;;;;;;;;;22.90;83.40;;;;;;5093657;28;19914;-57
2022/09/08 03:03:49;;;;;;;;;;;22.90;83.50;;;;;;5094945;28;19920;-57
2022/09/08 03:06:15;;;;;;;;;;;22.90;83.50;;;;;;5094526;28;19908;-57
2022/09/08 03:08:40;;;;;;;;;;;22.90;83.50;;;;;;5094567;28;19912;-55
2022/09/08 03:11:06;;;;;;;;;;;22.90;83.50;;;;;;5094768;28;19908;-56
2022/09/08 03:13:31;;;;;;;;;;;22.90;83.50;;;;;;5093481;28;19912;-55
2022/09/08 03:15:57;;;;;;;;;;;22.90;83.50;;;;;;5093387;28;19908;-56
2022/09/08 03:18:23;;;;;;;;;;;22.90;83.50;;;;;;5095026;28;20405;-54
2022/09/08 03:20:57;;;;;;;;;;;22.90;83.50;;;;;;5093395;28;20289;-57
2022/09/08 03:23:24;;;;;;;;;;;22.90;83.50;;;;;;5094477;28;19912;-57
2022/09/08 03:25:49;;;;;;;;;;;22.90;83.50;;;;;;5094277;28;19916;-55
2022/09/08 03:28:22;;;;;;;;;;;22.90;83.50;;;;;;5094529;28;19908;-57
2022/09/08 03:30:48;;;;;;;;;;;22.90;83.50;;;;;;5093152;28;20247;-56
2022/09/08 03:33:14;;;;;;;;;;;22.90;83.50;;;;;;5094367;28;19923;-58
2022/09/08 03:35:39;;;;;;;;;;;22.90;83.50;;;;;;5094377;28;19908;-54
2022/09/08 03:38:06;;;;;;;;;;;22.90;83.50;;;;;;5094047;28;19982;-56
2022/09/08 03:40:32;;;;;;;;;;;22.90;83.50;;;;;;5094377;28;20017;-56
2022/09/08 03:42:58;;;;;;;;;;;22.90;83.50;;;;;;5094310;28;19908;-53
2022/09/08 03:45:23;;;;;;;;;;;22.90;83.50;;;;;;5093046;28;19914;-54
2022/09/08 03:47:49;;;;;;;;;;;22.90;83.50;;;;;;5093888;28;20428;-53
2022/09/08 03:50:15;;;;;;;;;;;22.80;83.50;;;;;;5094132;28;19908;-54
2022/09/08 03:52:41;;;;;;;;;;;22.90;83.50;;;;;;5094135;28;19912;-54
2022/09/08 03:55:08;;;;;;;;;;;22.90;83.50;;;;;;5094000;28;19918;-53
2022/09/08 03:57:33;;;;;;;;;;;22.90;83.50;;;;;;5093874;28;19991;-57
2022/09/08 03:59:59;;;;;;;;;;;22.90;83.50;;;;;;5094174;28;20377;-57
2022/09/08 04:02:25;;;;;;;;;;;22.90;83.60;;;;;;5094271;28;19931;-54
2022/09/08 04:04:52;;;;;;;;;;;22.90;83.50;;;;;;5094137;28;19908;-55
2022/09/08 04:07:19;;;;;;;;;;;22.90;83.50;;;;;;5094128;28;19908;-57
2022/09/08 04:09:44;;;;;;;;;;;22.90;83.50;;;;;;5094082;28;19908;-55
2022/09/08 04:12:10;;;;;;;;;;;22.90;83.50;;;;;;5093952;28;20002;-56
2022/09/08 04:14:36;;;;;;;;;;;22.90;83.50;;;;;;5093884;28;19912;-55
2022/09/08 04:17:01;;;;;;;;;;;22.90;83.50;;;;;;5093674;28;20007;-57
2022/09/08 04:19:27;;;;;;;;;;;22.90;83.50;;;;;;5093444;28;19908;-56
2022/09/08 04:21:52;;;;;;;;;;;22.90;83.60;;;;;;5093653;28;19919;-57
2022/09/08 04:24:19;;;;;;;;;;;22.90;83.60;;;;;;5093814;28;20335;-52
2022/09/08 04:26:45;;;;;;;;;;;22.90;83.60;;;;;;5093813;28;19963;-57
2022/09/08 04:29:10;;;;;;;;;;;22.90;83.60;;;;;;5093783;28;20279;-57
2022/09/08 04:31:36;;;;;;;;;;;22.90;83.60;;;;;;5093782;28;19912;-53
2022/09/08 04:34:02;;;;;;;;;;;22.90;83.60;;;;;;5093599;28;19911;-55
2022/09/08 04:36:28;;;;;;;;;;;22.90;83.60;;;;;;5096293;28;19908;-57
2022/09/08 04:38:54;;;;;;;;;;;22.90;83.60;;;;;;5097914;28;19931;-54
2022/09/08 04:41:19;;;;;;;;;;;22.90;83.60;;;;;;5097479;28;19998;-53
2022/09/08 04:43:45;;;;;;;;;;;22.90;83.60;;;;;;5096977;28;20384;-56
2022/09/08 04:46:11;;;;;;;;;;;22.90;83.60;;;;;;5096118;28;19915;-56
2022/09/08 04:48:37;;;;;;;;;;;22.80;83.60;;;;;;5096074;28;19912;-55
2022/09/08 04:51:03;;;;;;;;;;;22.90;83.60;;;;;;5096043;28;19918;-53
2022/09/08 04:53:30;;;;;;;;;;;22.90;83.70;;;;;;5097145;28;20217;-57
2022/09/08 04:55:55;;;;;;;;;;;22.90;83.70;;;;;;5095798;28;19908;-54
2022/09/08 04:58:21;;;;;;;;;;;22.80;83.60;;;;;;5097173;28;19954;-55
2022/09/08 05:00:47;;;;;;;;;;;22.90;83.70;;;;;;5096740;28;20437;-53
2022/09/08 05:03:13;;;;;;;;;;;22.80;83.70;;;;;;5096869;28;19930;-55
2022/09/08 05:05:38;;;;;;;;;;;22.90;83.70;;;;;;5096792;28;20045;-55
2022/09/08 05:08:04;;;;;;;;;;;22.90;83.70;;;;;;5096587;28;19915;-56
2022/09/08 05:10:31;;;;;;;;;;;22.80;83.70;;;;;;5096958;28;19908;-54
2022/09/08 05:12:57;;;;;;;;;;;22.90;83.70;;;;;;5096787;28;19919;-54
2022/09/08 05:15:23;;;;;;;;;;;22.90;83.70;;;;;;5095623;28;19994;-57
2022/09/08 05:17:48;;;;;;;;;;;22.80;83.70;;;;;;5096759;28;19908;-56
2022/09/08 05:20:14;;;;;;;;;;;22.90;83.70;;;;;;5096657;28;19908;-57
2022/09/08 05:22:40;;;;;;;;;;;22.90;83.70;;;;;;5096668;28;20002;-56
2022/09/08 05:25:05;;;;;;;;;;;22.90;83.70;;;;;;5096084;28;20321;-56
2022/09/08 05:27:31;;;;;;;;;;;22.90;83.70;;;;;;5095936;28;19912;-53
2022/09/08 05:29:56;;;;;;;;;;;22.90;83.70;;;;;;5096545;28;19962;-55
2022/09/08 05:32:22;;;;;;;;;;;22.90;83.70;;;;;;5096132;28;19923;-57
2022/09/08 05:34:47;;;;;;;;;;;22.90;83.70;;;;;;5095167;28;19912;-53
2022/09/08 05:37:13;;;;;;;;;;;22.80;83.70;;;;;;5096343;28;19909;-55
2022/09/08 05:39:38;;;;;;;;;;;22.80;83.70;;;;;;5096712;28;20403;-57
2022/09/08 05:42:04;;;;;;;;;;;22.90;83.70;;;;;;5095052;28;19912;-56
2022/09/08 05:44:30;;;;;;;;;;;22.80;83.70;;;;;;5096211;28;19985;-55
2022/09/08 05:46:55;;;;;;;;;;;22.90;83.80;;;;;;5095908;28;19915;-54
2022/09/08 05:49:20;;;;;;;;;;;22.90;83.70;;;;;;5095878;28;19912;-53
2022/09/08 05:51:46;;;;;;;;;;;22.90;83.70;;;;;;5095703;28;19912;-57
2022/09/08 05:54:12;;;;;;;;;;;22.90;83.70;;;;;;5096060;28;19959;-54
2022/09/08 05:56:37;;;;;;;;;;;22.90;83.70;;;;;;5095629;28;19923;-57
2022/09/08 05:59:02;;;;;;;;;;;22.90;83.80;;;;;;5095867;28;19912;-53
2022/09/08 06:01:29;;;;;;;;;;;22.90;83.70;;;;;;5095646;28;19955;-57
2022/09/08 06:03:55;;;;;;;;;;;22.90;83.80;;;;;;5095802;28;20274;-54
2022/09/08 06:06:21;;;;;;;;;;;22.90;83.80;;;;;;5094454;28;20003;-56
2022/09/08 06:08:46;;;;;;;;;;;22.90;83.70;;;;;;5095422;28;19915;-57
2022/09/08 06:11:12;;;;;;;;;;;22.90;83.80;;;;;;5095606;28;19919;-57
2022/09/08 06:13:37;;;;;;;;;;;22.90;83.80;;;;;;5095522;28;19919;-56
2022/09/08 06:16:07;;;;;;;;;;;22.80;83.70;;;;;;5095096;28;19916;-55
2022/09/08 06:18:37;;;;;;;;;;;22.90;83.80;;;;;;5095400;28;19912;-57
2022/09/08 06:21:06;;;;;;;;;;;22.90;83.70;;;;;;5095237;28;20390;-55
2022/09/08 06:23:32;;;;;;;;;;;22.90;83.70;;;;;;5095367;28;20056;-55
2022/09/08 06:25:58;;;;;;;;;;;22.90;83.70;;;;;;5094045;28;19911;-55
2022/09/08 06:28:26;;;;;;;;;;;22.90;83.70;;;;;;5094953;28;19919;-56
2022/09/08 06:30:53;;;;;;;;;;;22.90;83.80;;;;;;5093982;28;20061;-55
2022/09/08 06:33:22;;;;;;;;;;;22.90;83.70;;;;;;5095095;28;19919;-56
2022/09/08 06:36:00;;;;;;;;;;;22.90;83.70;;;;;;5094886;28;20379;-56
2022/09/08 06:38:30;;;;;;;;;;;22.90;83.70;;;;;;5095100;28;19908;-56
2022/09/08 06:41:16;;;;;;;;;;;22.90;83.70;;;;;;5093844;28;20012;-55
2022/09/08 06:43:44;;;;;;;;;;;22.90;83.70;;;;;;5093610;28;20325;-56
2022/09/08 06:46:31;;;;;;;;;;;22.90;83.70;;;;;;5095206;28;19954;-55
2022/09/08 06:48:57;;;;;;;;;;;22.90;83.70;;;;;;5095012;28;19908;-54
2022/09/08 06:51:31;;;;;;;;;;;22.90;83.70;;;;;;5094907;28;19963;-57
2022/09/08 06:54:05;;;;;;;;;;;22.90;83.70;;;;;;5093607;28;19912;-57
2022/09/08 06:56:37;;;;;;;;;;;22.90;83.70;;;;;;5093589;28;19908;-57
2022/09/08 06:59:06;;;;;;;;;;;22.90;83.60;;;;;;5094127;28;19908;-53
2022/09/08 07:01:43;;;;;;;;;;;22.90;83.60;;;;;;5094624;28;19912;-56
2022/09/08 07:04:29;;;;;;;;;;;22.90;83.60;;;;;;5094921;28;19973;-54
2022/09/08 07:07:00;;;;;;;;;;;22.90;83.60;;;;;;5094416;28;19908;-57
2022/09/08 07:09:26;;;;;;;;;;;22.90;83.60;;;;;;5094793;28;19931;-55
2022/09/08 07:11:59;;;;;;;;;;;22.90;83.60;;;;;;5094327;28;19912;-56
2022/09/08 07:14:34;;;;;;;;;;;22.90;83.60;;;;;;5094598;28;19920;-56
2022/09/08 07:17:05;;;;;;;;;;;22.90;83.60;;;;;;5094324;28;19908;-54
2022/09/08 07:19:50;;;;;;;;;;;22.90;83.70;;;;;;5094757;28;19908;-56
2022/09/08 07:22:20;;;;;;;;;;;22.80;83.60;;;;;;5094320;28;19908;-56
2022/09/08 07:24:47;;;;;;;;;;;22.90;83.60;;;;;;5094653;28;19916;-57
2022/09/08 07:27:13;;;;;;;;;;;22.80;83.60;;;;;;5093178;28;19912;-57
2022/09/08 07:29:41;;;;;;;;;;;22.90;83.70;;;;;;5094114;28;19908;-57
2022/09/08 07:32:12;;;;;;;;;;;22.80;83.70;;;;;;5093952;28;19912;-56
2022/09/08 07:34:42;;;;;;;;;;;22.80;83.70;;;;;;5093788;28;20464;-54
2022/09/08 07:37:23;;;;;;;;;;;22.80;83.70;;;;;;5094164;28;19960;-55
2022/09/08 07:39:55;;;;;;;;;;;22.80;83.70;;;;;;5093937;28;20389;-57
2022/09/08 07:42:20;;;;;;;;;;;22.80;83.70;;;;;;5092740;28;19908;-55
2022/09/08 07:44:47;;;;;;;;;;;22.80;83.70;;;;;;5092802;28;19908;-52
2022/09/08 07:47:23;;;;;;;;;;;22.80;83.70;;;;;;5094157;28;20279;-56
2022/09/08 07:49:49;;;;;;;;;;;22.80;83.80;;;;;;5093739;28;19916;-54
2022/09/08 07:52:18;;;;;;;;;;;22.80;83.80;;;;;;5092613;28;19912;-53
2022/09/08 07:54:58;;;;;;;;;;;22.80;83.80;;;;;;5093821;28;19916;-56
2022/09/08 07:57:38;;;;;;;;;;;22.80;83.80;;;;;;5093983;28;19908;-55
2022/09/08 08:00:24;;;;;;;;;;;22.80;83.80;;;;;;5092768;28;20252;-56
2022/09/08 08:03:05;;;;;;;;;;;22.80;83.80;;;;;;5086106;28;20011;-57
2022/09/08 08:05:40;;;;;;;;;;;22.80;83.80;;;;;;5092776;28;19908;-56
2022/09/08 08:08:12;;;;;;;;;;;22.80;83.80;;;;;;5093946;28;19911;-52
2022/09/08 08:10:44;;;;;;;;;;;22.80;83.80;;;;;;5096448;28;19955;-54
2022/09/08 08:13:32;;;;;;;;;;;22.80;83.80;;;;;;5097727;28;19965;-57
2022/09/08 08:16:01;;;;;;;;;;;22.80;83.80;;;;;;5091923;28;19912;-55
2022/09/08 08:18:42;;;;;;;;;;;22.80;83.90;;;;;;5097725;28;20275;-57
2022/09/08 08:21:15;;;;;;;;;;;22.80;83.90;;;;;;5098106;28;20004;-57
2022/09/08 08:23:59;;;;;;;;;;;22.80;83.90;;;;;;5097860;28;19908;-52
2022/09/08 08:26:32;;;;;;;;;;;22.80;83.80;;;;;;5097772;28;20400;-55
2022/09/08 08:29:16;;;;;;;;;;;22.80;83.80;;;;;;5097724;28;19908;-56
2022/09/08 08:31:49;;;;;;;;;;;22.80;83.80;;;;;;5079263;28;19919;-55
2022/09/08 08:34:26;;;;;;;;;;;22.80;83.90;;;;;;5097126;28;19912;-55
2022/09/08 08:36:53;;;;;;;;;;;22.80;83.80;;;;;;5097319;28;20307;-56
2022/09/08 08:39:20;;;;;;;;;;;22.80;83.80;;;;;;5097245;28;19908;-57
2022/09/08 08:41:45;;;;;;;;;;;22.80;83.80;;;;;;5097577;28;19908;-55
2022/09/08 08:44:11;;;;;;;;;;;22.90;83.80;;;;;;5097045;28;19995;-56
2022/09/08 08:46:44;;;;;;;;;;;22.80;83.80;;;;;;5097146;28;20003;-56
2022/09/08 08:49:13;;;;;;;;;;;22.80;83.70;;;;;;5097278;28;20363;-56
2022/09/08 08:51:44;;;;;;;;;;;22.90;83.80;;;;;;5095938;28;19956;-54
2022/09/08 08:54:29;;;;;;;;;;;22.90;83.80;;;;;;5095764;28;19920;-53
2022/09/08 08:56:58;;;;;;;;;;;22.90;83.90;;;;;;5097214;28;19908;-56
2022/09/08 08:59:36;;;;;;;;;;;22.90;83.80;;;;;;5095908;28;20010;-57
2022/09/08 09:02:20;;;;;;;;;;;22.90;83.70;;;;;;5096732;28;19908;-57
2022/09/08 09:04:46;;;;;;;;;;;22.90;83.70;;;;;;5095755;28;20019;-53
2022/09/08 09:07:34;;;;;;;;;;;22.90;83.70;;;;;;5095526;28;19955;-56
2022/09/08 09:10:18;;;;;;;;;;;22.90;83.70;;;;;;5094699;28;19908;-54
2022/09/08 09:12:48;;;;;;;;;;;22.90;83.80;;;;;;5095563;28;19919;-57
2022/09/08 09:15:29;;;;;;;;;;;22.90;83.70;;;;;;5095523;28;19912;-57
2022/09/08 09:17:57;;;;;;;;;;;22.90;83.70;;;;;;5095732;28;19908;-56
2022/09/08 09:20:22;;;;;;;;;;;22.90;83.70;;;;;;5095171;28;19927;-55
2022/09/08 09:22:51;;;;;;;;;;;22.90;83.70;;;;;;5094371;28;19958;-53
2022/09/08 09:25:33;;;;;;;;;;;22.90;83.70;;;;;;5095216;28;19908;-54
2022/09/08 09:28:17;;;;;;;;;;;22.90;83.70;;;;;;5095367;28;19908;-57
2022/09/08 09:30:51;;;;;;;;;;;22.90;83.70;;;;;;5095297;28;19965;-55
2022/09/08 09:33:25;;;;;;;;;;;22.90;83.70;;;;;;5093995;28;19912;-56
2022/09/08 09:36:09;;;;;;;;;;;22.90;83.70;;;;;;5095647;28;20060;-56
2022/09/08 09:38:48;;;;;;;;;;;22.90;83.70;;;;;;5095143;28;19908;-56
2022/09/08 09:41:31;;;;;;;;;;;22.90;84.30;;;;;;5094249;28;19912;-56
2022/09/08 09:44:13;;;;;;;;;;;22.90;83.80;;;;;;5094920;28;19909;-55
2022/09/08 09:46:41;;;;;;;;;;;23.00;83.80;;;;;;5094934;28;19954;-57
2022/09/08 09:49:27;;;;;;;;;;;22.90;83.70;;;;;;5094585;28;20321;-57
2022/09/08 09:52:12;;;;;;;;;;;23.00;83.80;;;;;;5094735;28;19916;-57
2022/09/08 09:54:37;;;;;;;;;;;22.90;83.70;;;;;;5094660;28;19999;-55
2022/09/08 09:57:02;;;;;;;;;;;22.90;83.70;;;;;;5093573;28;19961;-55
2022/09/08 09:59:46;;;;;;;;;;;22.90;83.70;;;;;;5094457;28;19919;-53
2022/09/08 10:05:32;;;;;;;;;;;23.00;83.70;;;;;;5091246;28;20011;-55
2022/09/08 10:08:09;;;;;;;;;;;22.90;83.70;;;;;;5091835;28;20397;-54
2022/09/08 10:10:53;;;;;;;;;;;22.90;83.70;;;;;;5091055;28;19908;-53
2022/09/08 10:13:37;;;;;;;;;;;22.90;83.70;;;;;;5091018;28;19962;-56
2022/09/08 10:16:21;;;;;;;;;;;22.90;83.70;;;;;;5089659;28;19986;-55
2022/09/08 10:18:50;;;;;;;;;;;22.90;83.70;;;;;;5089716;28;19908;-56
2022/09/08 10:21:38;;;;;;;;;;;23.00;83.80;;;;;;5090997;28;20371;-55
2022/09/08 10:24:03;;;;;;;;;;;22.90;83.70;;;;;;5099166;28;19923;-51
2022/09/08 10:26:37;;;;;;;;;;;22.90;83.70;;;;;;5090649;28;19934;-56
2022/09/08 10:29:12;;;;;;;;;;;23.00;83.70;;;;;;5091399;28;20028;-57
2022/09/08 10:31:49;;;;;;;;;;;23.00;83.80;;;;;;5089652;28;20038;-55
2022/09/08 10:34:26;;;;;;;;;;;23.00;83.80;;;;;;5090670;28;19913;-54
2022/09/08 10:36:57;;;;;;;;;;;23.00;83.80;;;;;;5090927;28;19909;-57
2022/09/08 10:39:33;;;;;;;;;;;23.00;83.80;;;;;;5090756;28;19909;-56
2022/09/08 10:42:28;;;;;;;;;;;23.00;83.80;;;;;;5089530;28;19915;-57
2022/09/08 10:45:12;;;;;;;;;;;23.00;83.80;;;;;;5105854;28;20056;-56
2022/09/08 10:47:41;;;;;;;;;;;23.00;83.80;;;;;;5089329;28;20327;-55
2022/09/08 10:50:25;;;;;;;;;;;23.00;83.80;;;;;;5090715;28;19909;-54
2022/09/08 10:52:58;;;;;;;;;;;23.00;83.70;;;;;;5090617;28;19931;-57
2022/09/08 10:55:43;;;;;;;;;;;23.00;83.70;;;;;;5090472;28;19915;-55
2022/09/08 10:58:08;;;;;;;;;;;23.00;83.70;;;;;;5090321;28;19916;-54
2022/09/08 11:00:39;;;;;;;;;;;23.00;83.80;;;;;;5090056;28;19908;-57
2022/09/08 11:03:25;;;;;;;;;;;22.90;83.70;;;;;;5093709;28;19920;-57
2022/09/08 11:06:05;;;;;;;;;;;23.00;83.70;;;;;;5110695;28;19912;-53
2022/09/08 11:08:37;;;;;;;;;;;22.90;83.70;;;;;;5110709;28;19908;-57
2022/09/08 11:11:24;;;;;;;;;;;22.90;83.70;;;;;;5111083;28;19908;-60
2022/09/08 11:13:55;;;;;;;;;;;23.00;83.70;;;;;;5092541;28;19908;-54
2022/09/08 11:16:23;;;;;;;;;;;23.00;83.70;;;;;;5096456;28;19916;-55
2022/09/08 11:18:53;;;;;;;;;;;22.90;83.70;;;;;;5096797;28;19919;-56
2022/09/08 11:21:22;;;;;;;;;;;22.90;83.70;;;;;;5096565;28;20016;-55
2022/09/08 11:24:02;;;;;;;;;;;22.90;83.70;;;;;;5096673;28;19989;-53
2022/09/08 11:26:34;;;;;;;;;;;22.90;83.70;;;;;;5096629;28;19919;-56
2022/09/08 11:29:06;;;;;;;;;;;23.00;83.80;;;;;;5096373;28;20381;-56
2022/09/08 11:31:31;;;;;;;;;;;23.00;83.70;;;;;;5096637;28;19940;-56
2022/09/08 11:34:15;;;;;;;;;;;22.90;83.70;;;;;;5078589;28;20420;-56
2022/09/08 11:37:01;;;;;;;;;;;23.00;83.70;;;;;;5096332;28;19908;-57
2022/09/08 11:39:38;;;;;;;;;;;22.90;83.70;;;;;;5064871;28;20420;-53
2022/09/08 11:42:22;;;;;;;;;;;23.00;83.70;;;;;;5096313;28;20009;-55
2022/09/08 11:44:51;;;;;;;;;;;23.00;83.70;;;;;;5078025;28;19916;-52
2022/09/08 11:47:26;;;;;;;;;;;23.00;83.70;;;;;;5096040;28;20375;-56
2022/09/08 11:50:05;;;;;;;;;;;22.90;83.60;;;;;;5096324;28;19908;-55
2022/09/08 11:52:34;;;;;;;;;;;22.90;83.60;;;;;;5077939;28;20402;-57
2022/09/08 11:54:59;;;;;;;;;;;23.00;83.70;;;;;;5096042;28;20024;-56
2022/09/08 11:57:25;;;;;;;;;;;22.90;83.60;;;;;;5096017;28;20354;-57
2022/09/08 12:00:03;;;;;;;;;;;22.90;83.60;;;;;;5095660;28;19908;-53
2022/09/08 12:02:32;;;;;;;;;;;23.00;83.70;;;;;;5077852;28;20383;-57
2022/09/08 12:05:11;;;;;;;;;;;22.90;83.60;;;;;;5096367;28;20317;-56
2022/09/08 12:07:46;;;;;;;;;;;23.00;83.70;;;;;;5095568;28;19999;-57
2022/09/08 12:10:31;;;;;;;;;;;22.90;83.60;;;;;;5095930;28;19947;-53
2022/09/08 12:12:59;;;;;;;;;;;23.00;83.70;;;;;;5095604;28;20386;-54
2022/09/08 12:15:28;;;;;;;;;;;23.00;83.60;;;;;;5077387;28;19912;-55
2022/09/08 12:18:07;;;;;;;;;;;23.00;83.60;;;;;;5077796;28;20326;-52
2022/09/08 12:20:48;;;;;;;;;;;23.00;83.60;;;;;;5095232;28;19908;-55
2022/09/08 12:23:32;;;;;;;;;;;23.00;83.60;;;;;;5077427;28;20271;-55
2022/09/08 12:26:01;;;;;;;;;;;23.00;83.60;;;;;;5095053;28;19931;-54
2022/09/08 12:28:38;;;;;;;;;;;22.90;83.60;;;;;;5077050;28;19908;-55
2022/09/08 12:31:11;;;;;;;;;;;22.90;83.60;;;;;;5077329;28;19908;-54
2022/09/08 12:33:55;;;;;;;;;;;22.90;83.60;;;;;;5095492;28;19915;-57
2022/09/08 12:36:23;;;;;;;;;;;22.90;83.60;;;;;;5095222;28;20282;-57
2022/09/08 12:39:03;;;;;;;;;;;22.90;83.60;;;;;;5094955;28;19915;-55
2022/09/08 12:41:40;;;;;;;;;;;22.90;83.60;;;;;;5094930;28;19908;-57
2022/09/08 12:44:12;;;;;;;;;;;22.90;83.60;;;;;;5095097;28;19920;-56
2022/09/08 12:46:56;;;;;;;;;;;23.00;83.70;;;;;;5094781;28;19908;-54
2022/09/08 12:49:27;;;;;;;;;;;22.90;83.60;;;;;;5094958;28;19909;-55
2022/09/08 12:51:58;;;;;;;;;;;23.00;83.70;;;;;;5094823;28;19908;-56
2022/09/08 12:54:53;;;;;;;;;;;22.90;83.60;;;;;;5094819;28;19908;-57
2022/09/08 12:57:32;;;;;;;;;;;22.90;83.60;;;;;;5040063;28;19955;-56
2022/09/08 13:00:18;;;;;;;;;;;22.90;83.60;;;;;;5094584;28;19908;-57
2022/09/08 13:02:43;;;;;;;;;;;23.00;83.70;;;;;;5094422;28;19953;-54
2022/09/08 13:05:27;;;;;;;;;;;22.90;83.60;;;;;;5094583;28;19999;-57
2022/09/08 13:07:56;;;;;;;;;;;22.90;83.60;;;;;;5094469;28;19912;-57
2022/09/08 13:10:21;;;;;;;;;;;23.00;83.70;;;;;;5094293;28;19909;-57
2022/09/08 13:13:05;;;;;;;;;;;23.00;83.70;;;;;;5094444;28;19908;-55
2022/09/08 13:15:34;;;;;;;;;;;23.00;83.70;;;;;;5094426;28;19908;-54
2022/09/08 13:18:12;;;;;;;;;;;23.00;83.70;;;;;;5094130;28;19908;-54
2022/09/08 13:20:39;;;;;;;;;;;22.90;83.70;;;;;;5094315;28;19908;-56
2022/09/08 13:23:23;;;;;;;;;;;22.90;83.70;;;;;;5094456;28;19912;-54
2022/09/08 13:25:56;;;;;;;;;;;22.90;83.70;;;;;;5094093;28;19912;-54
2022/09/08 13:28:40;;;;;;;;;;;22.90;83.70;;;;;;5094523;28;19908;-56
2022/09/08 13:31:28;;;;;;;;;;;22.90;83.70;;;;;;5094378;28;19915;-56
2022/09/08 13:34:04;;;;;;;;;;;23.00;83.70;;;;;;5094422;28;19915;-52
2022/09/08 13:36:42;;;;;;;;;;;23.00;83.70;;;;;;5094349;28;19915;-56
2022/09/08 13:39:16;;;;;;;;;;;22.90;83.70;;;;;;5093641;28;19915;-57
2022/09/08 13:41:50;;;;;;;;;;;22.90;83.70;;;;;;5094164;28;19990;-55
2022/09/08 13:44:16;;;;;;;;;;;23.00;83.70;;;;;;5075765;28;19912;-52
2022/09/08 13:47:00;;;;;;;;;;;23.00;83.80;;;;;;5094269;28;20398;-54
2022/09/08 13:49:35;;;;;;;;;;;23.00;83.70;;;;;;5094146;28;19912;-55
2022/09/08 13:52:32;;;;;;;;;;;23.00;83.70;;;;;;5093915;28;19908;-54
2022/09/08 13:54:58;;;;;;;;;;;22.90;83.60;;;;;;5059575;28;19946;-55
2022/09/08 13:57:36;;;;;;;;;;;23.00;83.70;;;;;;5093668;28;20375;-54
2022/09/08 14:00:04;;;;;;;;;;;23.00;83.70;;;;;;5093806;28;19908;-56
2022/09/08 14:02:52;;;;;;;;;;;23.00;83.60;;;;;;5093653;28;20003;-57
2022/09/08 14:05:24;;;;;;;;;;;23.00;83.60;;;;;;5085294;28;20386;-55
2022/09/08 14:08:03;;;;;;;;;;;23.00;83.60;;;;;;5093183;28;20370;-55
2022/09/08 14:10:40;;;;;;;;;;;23.00;83.60;;;;;;5093829;28;19908;-54
2022/09/08 14:13:14;;;;;;;;;;;23.00;83.50;;;;;;5093809;28;20047;-54
2022/09/08 14:15:44;;;;;;;;;;;23.00;83.60;;;;;;5093579;28;19908;-55
2022/09/08 14:18:24;;;;;;;;;;;23.00;83.50;;;;;;5093740;28;19908;-53
2022/09/08 14:21:10;;;;;;;;;;;23.00;83.50;;;;;;5093845;28;20266;-56
2022/09/08 14:23:40;;;;;;;;;;;23.00;83.50;;;;;;5092979;28;19920;-55
2022/09/08 14:26:16;;;;;;;;;;;23.00;83.50;;;;;;5093165;28;19918;-57
2022/09/08 14:28:49;;;;;;;;;;;23.00;83.50;;;;;;5093525;28;19920;-55
2022/09/08 14:31:28;;;;;;;;;;;23.00;83.50;;;;;;5093662;28;20409;-57
2022/09/08 14:34:07;;;;;;;;;;;23.00;83.50;;;;;;5093470;28;19908;-54
2022/09/08 14:36:45;;;;;;;;;;;23.00;83.40;;;;;;5093476;28;19908;-54
2022/09/08 14:39:23;;;;;;;;;;;23.00;83.40;;;;;;5075296;28;19908;-55
2022/09/08 14:41:55;;;;;;;;;;;23.00;83.40;;;;;;5093640;28;19980;-54
2022/09/08 14:44:21;;;;;;;;;;;23.00;83.30;;;;;;5092939;28;19916;-55
2022/09/08 14:46:46;;;;;;;;;;;23.00;83.30;;;;;;5093044;28;20289;-54
2022/09/08 14:49:14;;;;;;;;;;;23.00;83.30;;;;;;5093281;28;19990;-56